createdAt,value
2018-02-21T00:00:44.102Z,21.70
2018-02-21T00:01:44.118Z,21.90
2018-02-21T00:02:44.113Z,22.30
2018-02-21T00:03:44.117Z,22.60
2018-02-21T00:04:44.131Z,22.70
2018-02-21T00:05:44.129Z,22.50
2018-02-21T00:06:44.145Z,21.70
2018-02-21T00:07:44.150Z,22.70
2018-02-21T00:08:44.162Z,22.40
2018-02-21T00:09:44.173Z,23.10
2018-02-21T00:10:44.173Z,23.00
2018-02-21T00:11:44.187Z,22.20
2018-02-21T00:12:44.189Z,22.30
2018-02-21T00:13:44.201Z,23.20
2018-02-21T00:14:44.216Z,23.10
2018-02-21T00:15:44.221Z,22.80
2018-02-21T00:16:44.232Z,22.30
2018-02-21T00:17:44.251Z,21.90
2018-02-21T00:18:44.244Z,22.00
2018-02-21T00:19:44.272Z,21.50
2018-02-21T00:20:44.266Z,22.80
2018-02-21T00:21:44.271Z,22.60
2018-02-21T00:22:44.278Z,23.10
2018-02-21T00:23:44.276Z,23.30
2018-02-21T00:24:44.294Z,21.50
2018-02-21T00:25:44.296Z,22.70
2018-02-21T00:26:44.306Z,22.10
2018-02-21T00:27:44.317Z,23.20
2018-02-21T00:28:44.323Z,22.20
2018-02-21T00:29:44.329Z,22.20
2018-02-21T00:30:44.344Z,23.50
2018-02-21T00:31:44.347Z,22.40
2018-02-21T00:32:44.364Z,22.50
2018-02-21T00:33:44.370Z,23.30
2018-02-21T00:34:44.376Z,23.10
2018-02-21T00:35:44.391Z,22.90
2018-02-21T00:36:44.399Z,22.80
2018-02-21T00:37:44.401Z,24.00
2018-02-21T00:38:44.416Z,23.20
2018-02-21T00:39:44.423Z,23.80
2018-02-21T00:40:44.437Z,22.00
2018-02-21T00:41:44.429Z,23.30
2018-02-21T00:42:44.439Z,22.80
2018-02-21T00:43:44.440Z,23.40
2018-02-21T00:44:44.456Z,22.20
2018-02-21T00:45:44.467Z,22.90
2018-02-21T00:46:44.468Z,21.80
2018-02-21T00:47:44.483Z,21.80
2018-02-21T00:48:44.492Z,22.10
2018-02-21T00:49:44.497Z,22.40
2018-02-21T00:50:44.515Z,22.30
2018-02-21T00:51:44.511Z,22.00
2018-02-21T00:52:44.529Z,21.70
2018-02-21T00:53:44.533Z,23.20
2018-02-21T00:54:44.541Z,22.90
2018-02-21T00:55:44.556Z,23.20
2018-02-21T00:56:44.566Z,21.80
2018-02-21T00:57:44.558Z,22.10
2018-02-21T00:58:44.584Z,22.20
2018-02-21T00:59:44.573Z,22.60
2018-02-21T01:00:44.592Z,21.40
2018-02-21T01:01:44.594Z,22.20
2018-02-21T01:02:44.608Z,22.30
2018-02-21T01:03:44.615Z,22.70
2018-02-21T01:04:44.619Z,21.00
2018-02-21T01:05:44.628Z,22.70
2018-02-21T01:06:44.647Z,22.30
2018-02-21T01:07:44.643Z,21.90
2018-02-21T01:08:44.680Z,22.20
2018-02-21T01:09:44.665Z,23.10
2018-02-21T01:10:44.670Z,21.80
2018-02-21T01:11:44.686Z,21.50
2018-02-21T01:12:44.705Z,23.00
2018-02-21T01:13:44.684Z,21.80
2018-02-21T01:14:44.697Z,23.00
2018-02-21T01:15:44.698Z,21.90
2018-02-21T01:16:44.711Z,22.00
2018-02-21T01:17:44.724Z,23.40
2018-02-21T01:18:44.732Z,22.40
2018-02-21T01:19:44.756Z,21.70
2018-02-21T01:20:44.747Z,24.20
2018-02-21T01:21:44.758Z,21.90
2018-02-21T01:22:44.769Z,21.70
2018-02-21T01:23:44.770Z,22.40
2018-02-21T01:24:44.782Z,21.20
2018-02-21T01:25:44.795Z,22.70
2018-02-21T01:26:44.807Z,21.30
2018-02-21T01:27:44.802Z,21.70
2018-02-21T01:28:44.803Z,22.40
2018-02-21T01:29:44.810Z,21.80
2018-02-21T01:30:44.861Z,21.20
2018-02-21T01:31:44.835Z,22.00
2018-02-21T01:32:44.843Z,22.40
2018-02-21T01:33:44.852Z,21.30
2018-02-21T01:34:44.864Z,23.00
2018-02-21T01:35:44.880Z,21.80
2018-02-21T01:36:44.873Z,21.80
2018-02-21T01:37:44.881Z,22.00
2018-02-21T01:38:44.902Z,21.50
2018-02-21T01:39:44.906Z,22.00
2018-02-21T01:40:44.916Z,21.80
2018-02-21T01:41:44.916Z,23.10
2018-02-21T01:42:44.922Z,21.50
2018-02-21T01:43:44.929Z,23.30
2018-02-21T01:44:44.939Z,22.20
2018-02-21T01:45:44.940Z,21.30
2018-02-21T01:46:44.957Z,21.90
2018-02-21T01:47:44.960Z,21.00
2018-02-21T01:48:44.981Z,21.20
2018-02-21T01:49:44.994Z,21.60
2018-02-21T01:50:44.996Z,21.90
2018-02-21T01:51:45.000Z,22.90
2018-02-21T01:52:45.003Z,23.10
2018-02-21T01:53:45.011Z,22.40
2018-02-21T01:54:45.013Z,22.40
2018-02-21T01:55:45.022Z,22.60
2018-02-21T01:56:45.041Z,21.70
2018-02-21T01:57:45.041Z,23.70
2018-02-21T01:58:45.052Z,22.60
2018-02-21T01:59:45.059Z,22.20
2018-02-21T02:00:45.069Z,22.70
2018-02-21T02:01:45.077Z,21.90
2018-02-21T02:02:45.091Z,23.40
2018-02-21T02:03:45.089Z,23.30
2018-02-21T02:04:45.108Z,22.40
2018-02-21T02:05:45.110Z,23.40
2018-02-21T02:06:45.127Z,22.30
2018-02-21T02:07:45.118Z,22.80
2018-02-21T02:08:45.125Z,23.30
2018-02-21T02:09:45.135Z,22.40
2018-02-21T02:10:45.147Z,22.40
2018-02-21T02:11:45.149Z,23.50
2018-02-21T02:12:45.166Z,22.20
2018-02-21T02:13:45.169Z,23.00
2018-02-21T02:14:45.179Z,23.20
2018-02-21T02:15:45.192Z,22.90
2018-02-21T02:16:45.197Z,23.00
2018-02-21T02:17:45.200Z,22.50
2018-02-21T02:18:45.213Z,22.40
2018-02-21T02:19:45.221Z,23.00
2018-02-21T02:20:45.222Z,21.30
2018-02-21T02:21:45.228Z,23.00
2018-02-21T02:22:45.243Z,22.60
2018-02-21T02:23:45.245Z,23.90
2018-02-21T02:24:45.257Z,21.60
2018-02-21T02:25:45.264Z,23.20
2018-02-21T02:26:45.276Z,23.50
2018-02-21T02:27:45.278Z,22.00
2018-02-21T02:28:45.312Z,22.50
2018-02-21T02:29:45.302Z,22.90
2018-02-21T02:30:45.304Z,23.20
2018-02-21T02:31:45.308Z,24.20
2018-02-21T02:32:45.312Z,23.00
2018-02-21T02:33:45.334Z,24.20
2018-02-21T02:34:45.337Z,22.70
2018-02-21T02:35:45.335Z,22.70
2018-02-21T02:36:45.354Z,22.90
2018-02-21T02:37:45.357Z,23.40
2018-02-21T02:38:45.361Z,23.70
2018-02-21T02:39:45.376Z,23.20
2018-02-21T02:40:45.388Z,23.10
2018-02-21T02:41:45.390Z,23.60
2018-02-21T02:42:45.403Z,23.90
2018-02-21T02:43:45.394Z,22.60
2018-02-21T02:44:45.418Z,22.70
2018-02-21T02:45:45.423Z,23.80
2018-02-21T02:46:45.422Z,22.20
2018-02-21T02:47:45.430Z,23.10
2018-02-21T02:48:45.449Z,24.90
2018-02-21T02:49:45.460Z,22.70
2018-02-21T02:50:45.461Z,22.20
2018-02-21T02:51:45.472Z,23.50
2018-02-21T02:52:45.481Z,23.40
2018-02-21T02:53:45.476Z,23.60
2018-02-21T02:54:45.496Z,23.70
2018-02-21T02:55:45.494Z,24.30
2018-02-21T02:56:45.511Z,24.10
2018-02-21T02:57:45.514Z,23.70
2018-02-21T02:58:45.527Z,24.40
2018-02-21T02:59:45.534Z,23.50
2018-02-21T03:00:45.535Z,23.90
2018-02-21T03:01:45.544Z,23.80
2018-02-21T03:02:45.566Z,22.90
2018-02-21T03:03:45.562Z,24.00
2018-02-21T03:04:45.566Z,24.80
2018-02-21T03:05:45.569Z,23.60
2018-02-21T03:06:45.575Z,23.90
2018-02-21T03:07:45.587Z,22.50
2018-02-21T03:08:45.601Z,23.40
2018-02-21T03:09:45.603Z,23.70
2018-02-21T03:10:45.620Z,23.70
2018-02-21T03:11:45.620Z,22.90
2018-02-21T03:12:45.637Z,23.30
2018-02-21T03:13:45.642Z,23.10
2018-02-21T03:14:45.647Z,23.60
2018-02-21T03:15:45.645Z,23.90
2018-02-21T03:16:45.650Z,23.00
2018-02-21T03:17:45.658Z,24.30
2018-02-21T03:18:45.679Z,23.30
2018-02-21T03:19:45.690Z,23.60
2018-02-21T03:20:45.696Z,23.10
2018-02-21T03:21:45.698Z,23.30
2018-02-21T03:22:45.708Z,23.90
2018-02-21T03:23:45.717Z,23.80
2018-02-21T03:24:45.729Z,22.90
2018-02-21T03:25:45.719Z,23.30
2018-02-21T03:26:45.740Z,23.20
2018-02-21T03:27:45.751Z,24.80
2018-02-21T03:28:45.754Z,24.30
2018-02-21T03:29:45.789Z,23.30
2018-02-21T03:30:45.776Z,24.10
2018-02-21T03:31:45.776Z,23.70
2018-02-21T03:32:45.783Z,22.90
2018-02-21T03:33:45.790Z,23.90
2018-02-21T03:34:45.811Z,23.60
2018-02-21T03:35:45.800Z,22.90
2018-02-21T03:36:45.808Z,23.80
2018-02-21T03:37:45.817Z,23.80
2018-02-21T03:38:45.828Z,24.20
2018-02-21T03:39:45.833Z,23.50
2018-02-21T03:40:45.850Z,23.60
2018-02-21T03:41:45.849Z,24.00
2018-02-21T03:42:45.867Z,24.60
2018-02-21T03:43:45.870Z,24.50
2018-02-21T03:44:45.882Z,24.10
2018-02-21T03:45:45.880Z,24.20
2018-02-21T03:46:45.885Z,22.80
2018-02-21T03:47:45.892Z,22.60
2018-02-21T03:48:45.902Z,24.00
2018-02-21T03:49:45.912Z,23.10
2018-02-21T03:50:45.937Z,23.20
2018-02-21T03:51:45.931Z,23.00
2018-02-21T03:52:45.945Z,22.90
2018-02-21T03:53:45.948Z,23.30
2018-02-21T03:54:45.971Z,23.50
2018-02-21T03:55:45.963Z,23.70
2018-02-21T03:56:45.964Z,23.00
2018-02-21T03:57:46.265Z,24.50
2018-02-21T03:58:45.978Z,23.90
2018-02-21T03:59:45.988Z,24.00
2018-02-21T04:00:45.999Z,22.60
2018-02-21T04:01:46.009Z,23.50
2018-02-21T04:02:46.011Z,23.00
2018-02-21T04:03:46.025Z,23.50
2018-02-21T04:04:46.031Z,22.80
2018-02-21T04:05:46.027Z,22.10
2018-02-21T04:06:46.035Z,24.70
2018-02-21T04:07:46.049Z,23.40
2018-02-21T04:08:46.054Z,23.80
2018-02-21T04:09:46.064Z,23.50
2018-02-21T04:10:46.079Z,23.20
2018-02-21T04:11:46.083Z,23.40
2018-02-21T04:12:46.094Z,25.30
2018-02-21T04:13:46.100Z,23.00
2018-02-21T04:14:46.100Z,23.70
2018-02-21T04:15:46.100Z,22.90
2018-02-21T04:16:46.119Z,22.80
2018-02-21T04:17:46.120Z,23.00
2018-02-21T04:18:46.126Z,24.10
2018-02-21T04:19:46.142Z,22.70
2018-02-21T04:20:46.149Z,23.50
2018-02-21T04:21:46.154Z,22.90
2018-02-21T04:22:46.168Z,23.40
2018-02-21T04:23:46.162Z,23.00
2018-02-21T04:24:46.174Z,22.50
2018-02-21T04:25:46.182Z,23.90
2018-02-21T04:26:46.199Z,23.50
2018-02-21T04:27:46.203Z,23.90
2018-02-21T04:28:46.205Z,22.50
2018-02-21T04:29:46.217Z,23.60
2018-02-21T04:30:46.241Z,23.60
2018-02-21T04:31:46.233Z,24.20
2018-02-21T04:32:46.245Z,23.90
2018-02-21T04:33:46.241Z,23.70
2018-02-21T04:34:46.248Z,22.40
2018-02-21T04:35:46.261Z,23.20
2018-02-21T04:36:46.262Z,24.10
2018-02-21T04:37:46.309Z,22.80
2018-02-21T04:38:46.284Z,23.50
2018-02-21T04:39:46.293Z,24.60
2018-02-21T04:40:46.305Z,23.80
2018-02-21T04:41:46.304Z,23.80
2018-02-21T04:42:46.306Z,24.10
2018-02-21T04:43:46.320Z,24.10
2018-02-21T04:44:46.325Z,23.40
2018-02-21T04:45:46.331Z,23.20
2018-02-21T04:46:46.344Z,24.20
2018-02-21T04:47:46.345Z,24.10
2018-02-21T04:48:46.360Z,24.30
2018-02-21T04:49:46.374Z,24.20
2018-02-21T04:50:46.384Z,23.70
2018-02-21T04:51:46.376Z,23.90
2018-02-21T04:52:46.396Z,23.80
2018-02-21T04:53:46.389Z,23.30
2018-02-21T04:54:46.404Z,23.00
2018-02-21T04:55:46.408Z,25.20
2018-02-21T04:56:46.414Z,24.30
2018-02-21T04:57:46.426Z,24.50
2018-02-21T04:58:46.438Z,23.70
2018-02-21T04:59:46.445Z,24.30
2018-02-21T05:00:46.448Z,23.30
2018-02-21T05:01:46.453Z,24.60
2018-02-21T05:02:46.470Z,25.00
2018-02-21T05:03:46.474Z,24.80
2018-02-21T05:04:46.479Z,24.00
2018-02-21T05:05:46.482Z,23.80
2018-02-21T05:06:46.512Z,25.70
2018-02-21T05:07:46.502Z,25.10
2018-02-21T05:08:46.521Z,24.00
2018-02-21T05:09:46.512Z,24.00
2018-02-21T05:10:46.516Z,25.00
2018-02-21T05:11:46.528Z,23.70
2018-02-21T05:12:46.533Z,23.70
2018-02-21T05:13:46.542Z,23.70
2018-02-21T05:14:46.562Z,24.40
2018-02-21T05:15:46.564Z,23.80
2018-02-21T05:16:46.575Z,23.80
2018-02-21T05:17:46.576Z,25.30
2018-02-21T05:18:46.572Z,25.50
2018-02-21T05:19:46.589Z,23.60
2018-02-21T05:20:46.600Z,24.10
2018-02-21T05:21:46.602Z,23.20
2018-02-21T05:22:46.620Z,23.60
2018-02-21T05:23:46.618Z,24.70
2018-02-21T05:24:46.635Z,24.90
2018-02-21T05:25:46.638Z,23.80
2018-02-21T05:26:46.655Z,24.20
2018-02-21T05:27:46.648Z,24.40
2018-02-21T05:28:46.648Z,23.90
2018-02-21T05:29:46.657Z,24.70
2018-02-21T05:30:46.676Z,24.30
2018-02-21T05:31:46.696Z,24.80
2018-02-21T05:32:46.693Z,22.90
2018-02-21T05:33:46.700Z,24.20
2018-02-21T05:34:46.709Z,22.40
2018-02-21T05:35:46.717Z,23.40
2018-02-21T05:36:46.708Z,24.20
2018-02-21T05:37:46.716Z,23.50
2018-02-21T05:38:46.748Z,23.80
2018-02-21T05:39:46.739Z,22.80
2018-02-21T05:40:46.749Z,22.40
2018-02-21T05:41:46.761Z,23.80
2018-02-21T05:42:46.766Z,23.00
2018-02-21T05:43:46.779Z,24.10
2018-02-21T05:44:46.787Z,24.40
2018-02-21T05:45:46.780Z,23.70
2018-02-21T05:46:46.791Z,23.90
2018-02-21T05:47:46.792Z,23.80
2018-02-21T05:48:46.810Z,24.50
2018-02-21T05:49:46.818Z,24.80
2018-02-21T05:50:46.831Z,24.50
2018-02-21T05:51:46.837Z,24.50
2018-02-21T05:52:46.847Z,24.50
2018-02-21T05:53:46.851Z,23.30
2018-02-21T05:54:46.858Z,24.60
2018-02-21T05:55:46.853Z,24.70
2018-02-21T05:56:46.877Z,25.20
2018-02-21T05:57:46.874Z,25.40
2018-02-21T05:58:46.877Z,24.70
2018-02-21T05:59:46.946Z,25.20
2018-02-21T06:00:46.903Z,24.70
2018-02-21T06:01:46.911Z,25.40
2018-02-21T06:02:46.927Z,24.20
2018-02-21T06:03:46.915Z,24.60
2018-02-21T06:04:46.922Z,26.10
2018-02-21T06:05:46.933Z,25.90
2018-02-21T06:06:46.942Z,24.00
2018-02-21T06:07:46.954Z,25.20
2018-02-21T06:08:46.962Z,25.60
2018-02-21T06:09:46.968Z,24.30
2018-02-21T06:10:46.984Z,26.60
2018-02-21T06:11:46.982Z,26.10
2018-02-21T06:12:47.005Z,24.80
2018-02-21T06:13:46.991Z,24.50
2018-02-21T06:14:47.001Z,25.20
2018-02-21T06:15:47.012Z,25.00
2018-02-21T06:16:47.025Z,25.60
2018-02-21T06:17:47.022Z,25.40
2018-02-21T06:18:47.047Z,25.10
2018-02-21T06:19:47.050Z,25.90
2018-02-21T06:20:47.063Z,26.40
2018-02-21T06:21:47.065Z,26.70
2018-02-21T06:22:47.075Z,26.80
2018-02-21T06:23:47.070Z,26.40
2018-02-21T06:24:47.070Z,25.40
2018-02-21T06:25:47.082Z,26.00
2018-02-21T06:26:47.102Z,26.00
2018-02-21T06:27:47.099Z,26.60
2018-02-21T06:28:47.120Z,26.30
2018-02-21T06:29:47.126Z,26.30
2018-02-21T06:30:47.141Z,26.40
2018-02-21T06:31:47.141Z,27.80
2018-02-21T06:32:47.137Z,25.60
2018-02-21T06:33:47.143Z,25.80
2018-02-21T06:34:47.157Z,25.60
2018-02-21T06:35:47.165Z,25.60
2018-02-21T06:36:47.176Z,26.40
2018-02-21T06:37:47.180Z,26.10
2018-02-21T06:38:47.189Z,26.50
2018-02-21T06:39:47.200Z,25.30
2018-02-21T06:40:47.207Z,25.10
2018-02-21T06:41:47.205Z,26.80
2018-02-21T06:42:47.218Z,26.40
2018-02-21T06:43:47.268Z,26.50
2018-02-21T06:44:47.232Z,26.60
2018-02-21T06:45:47.237Z,26.70
2018-02-21T06:46:47.241Z,25.90
2018-02-21T06:47:47.256Z,27.80
2018-02-21T06:48:47.272Z,25.20
2018-02-21T06:49:47.282Z,26.70
2018-02-21T06:50:47.283Z,25.20
2018-02-21T06:51:47.287Z,26.20
2018-02-21T06:52:47.308Z,27.20
2018-02-21T06:53:47.298Z,26.00
2018-02-21T06:54:47.302Z,26.20
2018-02-21T06:55:47.315Z,25.90
2018-02-21T06:56:47.318Z,27.10
2018-02-21T06:57:47.332Z,26.70
2018-02-21T06:58:47.340Z,25.80
2018-02-21T06:59:47.346Z,26.40
2018-02-21T07:00:47.364Z,26.20
2018-02-21T07:01:47.405Z,25.30
2018-02-21T07:02:47.383Z,25.20
2018-02-21T07:03:47.382Z,25.20
2018-02-21T07:04:47.402Z,25.50
2018-02-21T07:05:47.394Z,25.30
2018-02-21T07:06:47.398Z,25.00
2018-02-21T07:07:47.414Z,24.90
2018-02-21T07:08:47.412Z,26.20
2018-02-21T07:09:47.426Z,25.30
2018-02-21T07:10:47.442Z,24.50
2018-02-21T07:11:47.440Z,25.40
2018-02-21T07:12:47.459Z,25.40
2018-02-21T07:13:47.464Z,24.90
2018-02-21T07:14:47.475Z,25.90
2018-02-21T07:15:47.484Z,24.70
2018-02-21T07:16:47.495Z,24.90
2018-02-21T07:17:47.499Z,25.90
2018-02-21T07:18:47.516Z,24.30
2018-02-21T07:19:47.523Z,24.50
2018-02-21T07:20:47.530Z,25.90
2018-02-21T07:21:47.538Z,24.90
2018-02-21T07:22:47.540Z,26.10
2018-02-21T07:23:47.552Z,24.40
2018-02-21T07:24:47.551Z,25.30
2018-02-21T07:25:47.555Z,25.60
2018-02-21T07:26:47.566Z,24.30
2018-02-21T07:27:47.570Z,25.40
2018-02-21T07:28:47.589Z,26.20
2018-02-21T07:29:47.591Z,24.20
2018-02-21T07:30:47.600Z,24.80
2018-02-21T07:31:47.612Z,24.90
2018-02-21T07:32:47.624Z,25.00
2018-02-21T07:33:47.626Z,24.90
2018-02-21T07:34:47.654Z,25.50
2018-02-21T07:35:47.643Z,25.20
2018-02-21T07:36:47.663Z,25.00
2018-02-21T07:37:47.664Z,25.30
2018-02-21T07:38:47.687Z,25.50
2018-02-21T07:39:47.681Z,25.10
2018-02-21T07:40:47.690Z,25.10
2018-02-21T07:41:47.694Z,25.50
2018-02-21T07:42:47.714Z,25.00
2018-02-21T07:43:47.714Z,25.20
2018-02-21T07:44:47.726Z,25.90
2018-02-21T07:45:47.736Z,24.30
2018-02-21T07:46:47.740Z,25.60
2018-02-21T07:47:47.750Z,25.60
2018-02-21T07:48:47.757Z,25.00
2018-02-21T07:49:47.765Z,25.00
2018-02-21T07:50:47.789Z,24.60
2018-02-21T07:51:47.782Z,26.10
2018-02-21T07:52:47.795Z,24.80
2018-02-21T07:53:47.804Z,25.20
2018-02-21T07:54:47.809Z,24.70
2018-02-21T07:55:47.823Z,25.40
2018-02-21T07:56:47.830Z,25.20
2018-02-21T07:57:47.838Z,24.90
2018-02-21T07:58:47.852Z,25.00
2018-02-21T07:59:47.858Z,25.80
2018-02-21T08:00:47.866Z,25.20
2018-02-21T08:01:47.876Z,24.90
2018-02-21T08:02:47.889Z,25.30
2018-02-21T08:03:47.896Z,24.70
2018-02-21T08:04:47.899Z,25.30
2018-02-21T08:05:47.915Z,25.30
2018-02-21T08:06:47.925Z,25.40
2018-02-21T08:07:47.924Z,25.20
2018-02-21T08:08:47.940Z,25.20
2018-02-21T08:09:47.949Z,24.70
2018-02-21T08:10:47.958Z,26.40
2018-02-21T08:11:47.966Z,26.10
2018-02-21T08:12:47.975Z,26.10
2018-02-21T08:13:47.981Z,26.20
2018-02-21T08:14:47.995Z,26.10
2018-02-21T08:15:48.030Z,26.00
2018-02-21T08:16:48.029Z,26.20
2018-02-21T08:17:48.029Z,25.30
2018-02-21T08:18:48.043Z,25.90
2018-02-21T08:19:48.055Z,25.40
2018-02-21T08:20:48.097Z,25.00
2018-02-21T08:21:48.081Z,25.50
2018-02-21T08:22:48.078Z,25.80
2018-02-21T08:23:48.084Z,25.70
2018-02-21T08:24:48.100Z,26.10
2018-02-21T08:25:48.105Z,25.00
2018-02-21T08:26:48.111Z,25.30
2018-02-21T08:27:48.118Z,25.80
2018-02-21T08:28:48.127Z,25.50
2018-02-21T08:29:48.139Z,25.60
2018-02-21T08:30:48.145Z,26.10
2018-02-21T08:31:48.152Z,25.20
2018-02-21T08:32:48.167Z,25.40
2018-02-21T08:33:48.179Z,26.20
2018-02-21T08:34:48.195Z,26.90
2018-02-21T08:35:48.203Z,25.60
2018-02-21T08:36:48.207Z,26.60
2018-02-21T08:37:48.219Z,27.10
2018-02-21T08:38:48.236Z,25.10
2018-02-21T08:39:48.240Z,26.00
2018-02-21T08:40:48.248Z,27.00
2018-02-21T08:41:48.262Z,26.70
2018-02-21T08:42:48.266Z,25.90
2018-02-21T08:43:48.277Z,26.50
2018-02-21T08:44:48.281Z,26.40
2018-02-21T08:45:48.289Z,24.10
2018-02-21T08:46:48.303Z,25.70
2018-02-21T08:47:48.311Z,26.40
2018-02-21T08:48:48.321Z,26.50
2018-02-21T08:49:48.335Z,25.90
2018-02-21T08:50:48.336Z,25.60
2018-02-21T08:51:48.361Z,25.60
2018-02-21T08:52:48.365Z,26.40
2018-02-21T08:53:48.376Z,26.60
2018-02-21T08:54:48.387Z,26.50
2018-02-21T08:55:48.391Z,27.20
2018-02-21T08:56:48.404Z,27.60
2018-02-21T08:57:48.413Z,25.80
2018-02-21T08:58:48.483Z,25.60
2018-02-21T08:59:48.428Z,25.80
2018-02-21T09:00:48.434Z,25.70
2018-02-21T09:01:48.442Z,25.30
2018-02-21T09:02:48.459Z,24.00
2018-02-21T09:03:48.464Z,24.00
2018-02-21T09:04:48.475Z,26.40
2018-02-21T09:05:48.486Z,24.60
2018-02-21T09:06:48.505Z,24.80
2018-02-21T09:07:48.512Z,22.90
2018-02-21T09:08:48.516Z,25.20
2018-02-21T09:09:48.526Z,22.70
2018-02-21T09:10:48.538Z,24.30
2018-02-21T09:11:48.548Z,24.20
2018-02-21T09:12:48.553Z,23.60
2018-02-21T09:13:48.566Z,24.30
2018-02-21T09:14:48.579Z,25.00
2018-02-21T09:15:48.584Z,25.10
2018-02-21T09:16:48.597Z,23.90
2018-02-21T09:17:48.618Z,24.70
2018-02-21T09:18:48.621Z,23.40
2018-02-21T09:19:48.636Z,23.80
2018-02-21T09:20:48.636Z,24.50
2018-02-21T09:21:48.690Z,23.50
2018-02-21T09:22:48.658Z,22.40
2018-02-21T09:23:48.666Z,22.90
2018-02-21T09:24:48.678Z,22.80
2018-02-21T09:25:48.687Z,23.30
2018-02-21T09:26:48.706Z,23.10
2018-02-21T09:27:48.717Z,22.70
2018-02-21T09:28:48.723Z,24.20
2018-02-21T09:29:48.731Z,24.70
2018-02-21T09:30:48.744Z,23.90
2018-02-21T09:31:48.750Z,23.00
2018-02-21T09:32:48.761Z,24.60
2018-02-21T09:33:48.770Z,24.70
2018-02-21T09:34:48.788Z,22.90
2018-02-21T09:35:48.810Z,22.30
2018-02-21T09:36:48.807Z,23.20
2018-02-21T09:37:48.817Z,23.30
2018-02-21T09:38:48.829Z,23.90
2018-02-21T09:39:48.831Z,22.80
2018-02-21T09:40:48.852Z,22.90
2018-02-21T09:41:48.853Z,22.80
2018-02-21T09:42:48.876Z,23.50
2018-02-21T09:43:48.888Z,22.90
2018-02-21T09:44:48.893Z,22.10
2018-02-21T09:45:48.896Z,22.60
2018-02-21T09:46:48.910Z,22.80
2018-02-21T09:47:48.919Z,23.20
2018-02-21T09:48:48.942Z,23.40
2018-02-21T09:49:48.950Z,22.10
2018-02-21T09:50:48.960Z,22.40
2018-02-21T09:51:48.979Z,23.10
2018-02-21T09:52:48.974Z,22.70
2018-02-21T09:53:48.982Z,22.50
2018-02-21T09:54:49.004Z,22.10
2018-02-21T09:55:49.012Z,22.20
2018-02-21T09:56:49.028Z,23.10
2018-02-21T09:57:49.034Z,22.40
2018-02-21T09:58:49.038Z,22.10
2018-02-21T09:59:49.064Z,21.40
2018-02-21T10:00:49.072Z,21.60
2018-02-21T10:01:49.078Z,21.30
2018-02-21T10:02:49.095Z,21.60
2018-02-21T10:03:49.102Z,21.10
2018-02-21T10:04:49.119Z,22.00
2018-02-21T10:05:49.133Z,21.60
2018-02-21T10:06:49.133Z,21.30
2018-02-21T10:07:49.151Z,21.70
2018-02-21T10:08:49.158Z,21.90
2018-02-21T10:09:49.175Z,21.40
2018-02-21T10:10:49.191Z,20.80
2018-02-21T10:11:49.194Z,20.80
2018-02-21T10:12:49.215Z,20.60
2018-02-21T10:13:49.225Z,20.50
2018-02-21T10:14:49.233Z,19.50
2018-02-21T10:15:49.245Z,20.90
2018-02-21T10:16:49.250Z,19.10
2018-02-21T10:17:49.270Z,18.60
2018-02-21T10:18:49.290Z,19.70
2018-02-21T10:19:49.285Z,19.60
2018-02-21T10:20:49.315Z,18.40
2018-02-21T10:21:49.321Z,19.20
2018-02-21T10:22:49.330Z,18.10
2018-02-21T10:23:49.353Z,18.50
2018-02-21T10:24:49.361Z,17.90
2018-02-21T10:25:49.366Z,17.60
2018-02-21T10:26:49.392Z,17.70
2018-02-21T10:27:49.402Z,18.00
2018-02-21T10:28:49.407Z,18.50
2018-02-21T10:29:49.416Z,17.80
2018-02-21T10:30:49.438Z,18.00
2018-02-21T10:31:49.447Z,17.30
2018-02-21T10:32:49.456Z,18.00
2018-02-21T10:33:49.474Z,17.50
2018-02-21T10:34:49.503Z,18.30
2018-02-21T10:35:49.493Z,18.30
2018-02-21T10:36:49.518Z,18.00
2018-02-21T10:37:49.527Z,17.90
2018-02-21T10:38:49.533Z,17.60
2018-02-21T10:39:49.557Z,17.70
2018-02-21T10:40:49.564Z,17.40
2018-02-21T10:41:49.576Z,17.40
2018-02-21T10:42:49.596Z,16.80
2018-02-21T10:43:49.602Z,17.40
2018-02-21T10:44:49.626Z,16.90
2018-02-21T10:45:49.638Z,16.00
2018-02-21T10:46:49.645Z,14.60
2018-02-21T10:47:49.669Z,14.70
2018-02-21T10:48:49.673Z,15.00
2018-02-21T10:49:49.680Z,16.60
2018-02-21T10:50:49.705Z,15.40
2018-02-21T10:51:49.710Z,16.00
2018-02-21T10:52:49.735Z,15.50
2018-02-21T10:53:49.742Z,16.20
2018-02-21T10:54:49.748Z,15.10
2018-02-21T10:55:49.779Z,15.00
2018-02-21T10:56:49.781Z,15.10
2018-02-21T10:57:49.791Z,15.00
2018-02-21T10:58:49.813Z,15.00
2018-02-21T10:59:49.817Z,15.50
2018-02-21T11:00:49.842Z,15.10
2018-02-21T11:01:49.851Z,14.80
2018-02-21T11:02:49.874Z,14.60
2018-02-21T11:03:49.882Z,15.00
2018-02-21T11:04:49.887Z,14.20
2018-02-21T11:05:49.908Z,14.00
2018-02-21T11:06:49.926Z,13.30
2018-02-21T11:07:49.939Z,14.30
2018-02-21T11:08:49.956Z,13.60
2018-02-21T11:09:49.962Z,13.40
2018-02-21T11:10:49.980Z,13.40
2018-02-21T11:11:49.994Z,15.10
2018-02-21T11:12:50.007Z,15.00
2018-02-21T11:13:50.016Z,15.70
2018-02-21T11:14:50.030Z,15.70
2018-02-21T11:15:50.049Z,14.20
2018-02-21T11:16:50.063Z,14.70
2018-02-21T11:17:50.082Z,13.40
2018-02-21T11:18:50.089Z,14.90
2018-02-21T11:19:50.102Z,12.90
2018-02-21T11:20:50.122Z,13.50
2018-02-21T11:21:50.134Z,13.40
2018-02-21T11:22:50.151Z,11.90
2018-02-21T11:23:50.163Z,12.10
2018-02-21T11:24:50.174Z,11.80
2018-02-21T11:25:50.190Z,12.20
2018-02-21T11:26:50.222Z,12.50
2018-02-21T11:27:50.221Z,12.20
2018-02-21T11:28:50.261Z,11.10
2018-02-21T11:29:50.241Z,10.50
2018-02-21T11:30:50.258Z,10.70
2018-02-21T11:31:50.268Z,11.50
2018-02-21T11:32:50.296Z,10.80
2018-02-21T11:33:50.294Z,12.50
2018-02-21T11:34:50.315Z,12.70
2018-02-21T11:35:50.324Z,13.20
2018-02-21T11:36:50.345Z,12.40
2018-02-21T11:37:50.359Z,12.30
2018-02-21T11:38:50.368Z,11.70
2018-02-21T11:39:50.392Z,11.40
2018-02-21T11:40:50.402Z,11.10
2018-02-21T11:41:50.409Z,11.60
2018-02-21T11:42:50.431Z,11.30
2018-02-21T11:43:50.436Z,9.90
2018-02-21T11:44:50.463Z,9.30
2018-02-21T11:45:50.471Z,9.90
2018-02-21T11:46:50.497Z,10.20
2018-02-21T11:47:50.503Z,10.30
2018-02-21T11:48:50.547Z,10.40
2018-02-21T11:49:50.531Z,10.40
2018-02-21T11:50:50.546Z,9.70
2018-02-21T11:51:50.557Z,10.00
2018-02-21T11:52:50.570Z,9.60
2018-02-21T11:53:50.591Z,9.80
2018-02-21T11:54:50.598Z,9.30
2018-02-21T11:55:50.637Z,10.20
2018-02-21T11:56:50.624Z,10.30
2018-02-21T11:57:50.635Z,13.10
2018-02-21T11:58:50.675Z,10.50
2018-02-21T11:59:50.666Z,10.10
2018-02-21T12:00:50.696Z,10.40
2018-02-21T12:01:50.701Z,11.10
2018-02-21T12:02:50.720Z,10.30
2018-02-21T12:03:50.734Z,10.70
2018-02-21T12:04:50.828Z,9.90
2018-02-21T12:05:50.754Z,10.60
2018-02-21T12:06:50.767Z,11.20
2018-02-21T12:07:50.784Z,10.90
2018-02-21T12:08:50.797Z,12.70
2018-02-21T12:09:50.818Z,10.90
2018-02-21T12:10:50.828Z,12.20
2018-02-21T12:11:50.842Z,11.60
2018-02-21T12:12:50.855Z,10.70
2018-02-21T12:13:50.865Z,11.40
2018-02-21T12:14:50.894Z,11.70
2018-02-21T12:15:50.893Z,10.90
2018-02-21T12:16:50.918Z,11.80
2018-02-21T12:17:50.927Z,10.10
2018-02-21T12:18:50.935Z,9.70
2018-02-21T12:19:50.961Z,9.50
2018-02-21T12:20:50.968Z,10.20
2018-02-21T12:21:50.986Z,10.50
2018-02-21T12:22:51.014Z,10.50
2018-02-21T12:23:51.002Z,9.80
2018-02-21T12:24:51.030Z,9.90
2018-02-21T12:25:51.042Z,9.70
2018-02-21T12:26:51.052Z,9.10
2018-02-21T12:27:51.075Z,9.70
2018-02-21T12:28:51.085Z,10.40
2018-02-21T12:29:51.094Z,10.10
2018-02-21T12:30:51.121Z,10.30
2018-02-21T12:31:51.126Z,10.40
2018-02-21T12:32:51.159Z,10.40
2018-02-21T12:33:51.156Z,10.30
2018-02-21T12:34:51.212Z,10.00
2018-02-21T12:35:51.189Z,10.60
2018-02-21T12:36:51.194Z,12.20
2018-02-21T12:37:51.219Z,10.20
2018-02-21T12:38:51.228Z,10.40
2018-02-21T12:39:51.245Z,11.20
2018-02-21T12:40:51.259Z,11.10
2018-02-21T12:41:51.284Z,12.10
2018-02-21T12:42:51.285Z,12.00
2018-02-21T12:43:51.308Z,11.60
2018-02-21T12:44:51.326Z,11.20
2018-02-21T12:45:51.334Z,11.10
2018-02-21T12:46:51.348Z,10.50
2018-02-21T12:47:51.355Z,10.70
2018-02-21T12:48:51.386Z,10.70
2018-02-21T12:49:51.389Z,9.90
2018-02-21T12:50:51.406Z,10.70
2018-02-21T12:51:51.431Z,9.50
2018-02-21T12:52:51.444Z,10.60
2018-02-21T12:53:51.455Z,10.50